WJA604 CYYT-CYQB
Flight info
| Callsign | WJA604 |
|---|---|
| Flight time | 1h 48m |
| Altitude | 34000 |
| Route | CADIL DCT USBAM DCT MIVAX DCT SIMTO SIMTO4 |
| Aircraft | B738/M-SDE2E3FGHIRWXY/LB1 |
Departure
| Time | 2026-04-27 03:17 |
|---|---|
| Airport | St. John's International Airport (CYYT) |
Arrival
| Time | 2026-04-27 05:06 |
|---|---|
| Airport | Quebec Jean Lesage International Airport (CYQB) |
| Time | Latitude | Longitude | Altitude | Speed | Heading |
|---|---|---|---|---|---|
| 2026-04-27 03:05 | 47.61316 | -52.74094 | 448 ft | 0 kts | 270° |
| 2026-04-27 03:11 | 47.61317 | -52.74068 | 429 ft | 4 kts | 270° |
| 2026-04-27 03:11 | 47.61317 | -52.74029 | 448 ft | 4 kts | 264° |
| 2026-04-27 03:11 | 47.61323 | -52.73991 | 448 ft | 4 kts | 238° |
| 2026-04-27 03:12 | 47.61339 | -52.73969 | 448 ft | 4 kts | 177° |
| 2026-04-27 03:12 | 47.61344 | -52.73969 | 448 ft | 0 kts | 169° |
| 2026-04-27 03:14 | 47.61330 | -52.73966 | 448 ft | 6 kts | 169° |
| 2026-04-27 03:14 | 47.61294 | -52.73955 | 448 ft | 4 kts | 165° |
| 2026-04-27 03:14 | 47.61277 | -52.73913 | 448 ft | 14 kts | 98° |
| 2026-04-27 03:15 | 47.61230 | -52.73754 | 433 ft | 19 kts | 126° |
| 2026-04-27 03:15 | 47.61164 | -52.73591 | 417 ft | 13 kts | 117° |
| 2026-04-27 03:15 | 47.61129 | -52.73501 | 414 ft | 10 kts | 118° |
| 2026-04-27 03:15 | 47.61119 | -52.73396 | 418 ft | 11 kts | 64° |
| 2026-04-27 03:16 | 47.61166 | -52.73368 | 419 ft | 6 kts | 338° |
| 2026-04-27 03:16 | 47.61181 | -52.73384 | 422 ft | 0 kts | 320° |
| 2026-04-27 03:16 | 47.61217 | -52.73429 | 414 ft | 31 kts | 319° |
| 2026-04-27 03:16 | 47.61570 | -52.73876 | 432 ft | 99 kts | 319° |
| 2026-04-27 03:17 | 47.62225 | -52.74717 | 591 ft | 142 kts | 324° |
| 2026-04-27 03:17 | 47.63049 | -52.75744 | 993 ft | 170 kts | 326° |
| 2026-04-27 03:17 | 47.64074 | -52.76712 | 1583 ft | 177 kts | 333° |
| 2026-04-27 03:17 | 47.65128 | -52.77575 | 2450 ft | 173 kts | 334° |
| 2026-04-27 03:18 | 47.66208 | -52.78587 | 2654 ft | 203 kts | 329° |
| 2026-04-27 03:18 | 47.67567 | -52.79878 | 2362 ft | 252 kts | 332° |
| 2026-04-27 03:18 | 47.69121 | -52.81356 | 2747 ft | 275 kts | 328° |
| 2026-04-27 03:18 | 47.70643 | -52.83097 | 3767 ft | 272 kts | 324° |
| 2026-04-27 03:19 | 47.72050 | -52.84825 | 5343 ft | 253 kts | 327° |
| 2026-04-27 03:19 | 47.73412 | -52.86411 | 6535 ft | 248 kts | 328° |
| 2026-04-27 03:19 | 47.74846 | -52.87953 | 7047 ft | 265 kts | 330° |
| 2026-04-27 03:19 | 47.76451 | -52.89554 | 7209 ft | 291 kts | 331° |
| 2026-04-27 03:20 | 47.78198 | -52.91233 | 7660 ft | 305 kts | 330° |
| 2026-04-27 03:20 | 47.79851 | -52.93223 | 8562 ft | 309 kts | 314° |
| 2026-04-27 03:20 | 47.80755 | -52.96138 | 9743 ft | 319 kts | 286° |
| 2026-04-27 03:20 | 47.80624 | -52.99474 | 10779 ft | 331 kts | 264° |
| 2026-04-27 03:21 | 47.79994 | -53.02866 | 11144 ft | 351 kts | 261° |
| 2026-04-27 03:21 | 47.79360 | -53.06471 | 11448 ft | 366 kts | 264° |
| 2026-04-27 03:21 | 47.78880 | -53.10165 | 12062 ft | 369 kts | 268° |
| 2026-04-27 03:21 | 47.78566 | -53.13959 | 12827 ft | 370 kts | 271° |
| 2026-04-27 03:22 | 47.78397 | -53.17783 | 13598 ft | 372 kts | 274° |
| 2026-04-27 03:22 | 47.78332 | -53.21642 | 14242 ft | 375 kts | 275° |
| 2026-04-27 03:22 | 47.78337 | -53.25529 | 14975 ft | 376 kts | 276° |
| 2026-04-27 03:22 | 47.78384 | -53.29429 | 15669 ft | 380 kts | 277° |
| 2026-04-27 03:23 | 47.78457 | -53.33379 | 16312 ft | 385 kts | 277° |
| 2026-04-27 03:23 | 47.78543 | -53.37388 | 16983 ft | 390 kts | 278° |
| 2026-04-27 03:23 | 47.78635 | -53.41438 | 17649 ft | 394 kts | 278° |
| 2026-04-27 03:23 | 47.78730 | -53.45535 | 18302 ft | 399 kts | 278° |
| 2026-04-27 03:24 | 47.78825 | -53.49692 | 18846 ft | 404 kts | 278° |
| 2026-04-27 03:24 | 47.78921 | -53.53892 | 19364 ft | 409 kts | 278° |
| 2026-04-27 03:24 | 47.79016 | -53.58150 | 19889 ft | 414 kts | 278° |
| 2026-04-27 03:24 | 47.79109 | -53.62459 | 20407 ft | 419 kts | 278° |
| 2026-04-27 03:25 | 47.79202 | -53.66818 | 20924 ft | 424 kts | 279° |
| 2026-04-27 03:25 | 47.79294 | -53.71219 | 21417 ft | 429 kts | 279° |
| 2026-04-27 03:25 | 47.79385 | -53.75677 | 21903 ft | 433 kts | 279° |
| 2026-04-27 03:25 | 47.79475 | -53.80177 | 22374 ft | 438 kts | 279° |
| 2026-04-27 03:26 | 47.79564 | -53.84731 | 22843 ft | 442 kts | 279° |
| 2026-04-27 03:26 | 47.79652 | -53.89324 | 23307 ft | 447 kts | 279° |
| 2026-04-27 03:26 | 47.79739 | -53.93963 | 23728 ft | 451 kts | 279° |
| 2026-04-27 03:26 | 47.79826 | -53.98652 | 24085 ft | 455 kts | 279° |
| 2026-04-27 03:27 | 47.79910 | -54.03376 | 24478 ft | 458 kts | 279° |
| 2026-04-27 03:27 | 47.79991 | -54.08068 | 24847 ft | 462 kts | 279° |
| 2026-04-27 03:27 | 47.80073 | -54.12857 | 25199 ft | 466 kts | 279° |
| 2026-04-27 03:27 | 47.80154 | -54.17694 | 25547 ft | 469 kts | 279° |
| 2026-04-27 03:28 | 47.80233 | -54.22561 | 25899 ft | 473 kts | 279° |
| 2026-04-27 03:28 | 47.80310 | -54.27471 | 26241 ft | 476 kts | 279° |
| 2026-04-27 03:28 | 47.80387 | -54.32411 | 26574 ft | 480 kts | 279° |
| 2026-04-27 03:28 | 47.80462 | -54.37457 | 26909 ft | 483 kts | 279° |
| 2026-04-27 03:29 | 47.80536 | -54.42476 | 27237 ft | 487 kts | 279° |
| 2026-04-27 03:29 | 47.80607 | -54.47521 | 27551 ft | 490 kts | 279° |
| 2026-04-27 03:29 | 47.80675 | -54.52538 | 27853 ft | 492 kts | 279° |
| 2026-04-27 03:29 | 47.80741 | -54.57631 | 28204 ft | 494 kts | 279° |
| 2026-04-27 03:30 | 47.80807 | -54.62758 | 28506 ft | 497 kts | 279° |
| 2026-04-27 03:30 | 47.80870 | -54.67906 | 28845 ft | 499 kts | 279° |
| 2026-04-27 03:30 | 47.80930 | -54.73067 | 29296 ft | 498 kts | 279° |
| 2026-04-27 03:30 | 47.80987 | -54.78220 | 29773 ft | 497 kts | 279° |
| 2026-04-27 03:31 | 47.81042 | -54.83361 | 30197 ft | 498 kts | 279° |
| 2026-04-27 03:31 | 47.81096 | -54.88516 | 30519 ft | 498 kts | 279° |
| 2026-04-27 03:31 | 47.81148 | -54.93668 | 30872 ft | 498 kts | 279° |
| 2026-04-27 03:31 | 47.81197 | -54.98822 | 31265 ft | 498 kts | 279° |
| 2026-04-27 03:32 | 47.81244 | -55.03958 | 31627 ft | 496 kts | 278° |
| 2026-04-27 03:32 | 47.81288 | -55.09086 | 32014 ft | 495 kts | 278° |
| 2026-04-27 03:32 | 47.81331 | -55.14215 | 32336 ft | 496 kts | 278° |
| 2026-04-27 03:32 | 47.81372 | -55.19345 | 32620 ft | 497 kts | 278° |
| 2026-04-27 03:33 | 47.81411 | -55.24485 | 32985 ft | 496 kts | 278° |
| 2026-04-27 03:33 | 47.81446 | -55.29610 | 33368 ft | 495 kts | 278° |
| 2026-04-27 03:33 | 47.81479 | -55.34729 | 33776 ft | 494 kts | 278° |
| 2026-04-27 03:33 | 47.81510 | -55.39830 | 34073 ft | 494 kts | 278° |
| 2026-04-27 03:34 | 47.81543 | -55.44980 | 34049 ft | 500 kts | 278° |
| 2026-04-27 03:34 | 47.81601 | -55.55425 | 34046 ft | 509 kts | 277° |
| 2026-04-27 03:35 | 47.81644 | -55.65982 | 34057 ft | 512 kts | 277° |
| 2026-04-27 03:35 | 47.81673 | -55.76590 | 34058 ft | 513 kts | 277° |
| 2026-04-27 03:36 | 47.81694 | -55.87214 | 34056 ft | 513 kts | 277° |
| 2026-04-27 03:36 | 47.81707 | -55.97808 | 34054 ft | 511 kts | 277° |
| 2026-04-27 03:37 | 47.81710 | -56.08373 | 34059 ft | 509 kts | 276° |
| 2026-04-27 03:37 | 47.81704 | -56.18897 | 34064 ft | 508 kts | 276° |
| 2026-04-27 03:38 | 47.81691 | -56.29339 | 34064 ft | 508 kts | 276° |
| 2026-04-27 03:38 | 47.81666 | -56.39845 | 34094 ft | 508 kts | 276° |
| 2026-04-27 03:39 | 47.81633 | -56.50357 | 34106 ft | 508 kts | 276° |
| 2026-04-27 03:39 | 47.81589 | -56.60880 | 34102 ft | 508 kts | 275° |
| 2026-04-27 03:40 | 47.81536 | -56.71393 | 34142 ft | 508 kts | 275° |
| 2026-04-27 03:40 | 47.81473 | -56.81906 | 34161 ft | 509 kts | 275° |
| 2026-04-27 03:41 | 47.81400 | -56.92439 | 34157 ft | 509 kts | 275° |
| 2026-04-27 03:41 | 47.81318 | -57.02965 | 34145 ft | 509 kts | 274° |
| 2026-04-27 03:42 | 47.81226 | -57.13483 | 34182 ft | 509 kts | 274° |
| 2026-04-27 03:42 | 47.81124 | -57.24004 | 34192 ft | 509 kts | 274° |
| 2026-04-27 03:43 | 47.81014 | -57.34461 | 34202 ft | 509 kts | 274° |
| 2026-04-27 03:43 | 47.80893 | -57.44986 | 34202 ft | 509 kts | 274° |
| 2026-04-27 03:44 | 47.80763 | -57.55526 | 34181 ft | 509 kts | 273° |
| 2026-04-27 03:44 | 47.80623 | -57.66040 | 34200 ft | 508 kts | 273° |
| 2026-04-27 03:45 | 47.80474 | -57.76543 | 34189 ft | 508 kts | 272° |
| 2026-04-27 03:45 | 47.80315 | -57.87047 | 34210 ft | 508 kts | 272° |
| 2026-04-27 03:46 | 47.80175 | -57.95798 | 34213 ft | 508 kts | 272° |
| 2026-04-27 03:46 | 47.79999 | -58.06303 | 34202 ft | 508 kts | 271° |
| 2026-04-27 03:47 | 47.79813 | -58.16789 | 34220 ft | 507 kts | 271° |
| 2026-04-27 03:47 | 47.79617 | -58.27265 | 34233 ft | 507 kts | 271° |
| 2026-04-27 03:48 | 47.79413 | -58.37743 | 34238 ft | 506 kts | 271° |
| 2026-04-27 03:48 | 47.79199 | -58.48219 | 34242 ft | 506 kts | 271° |
| 2026-04-27 03:49 | 47.78975 | -58.58685 | 34238 ft | 506 kts | 270° |
| 2026-04-27 03:49 | 47.78744 | -58.69085 | 34251 ft | 506 kts | 270° |
| 2026-04-27 03:50 | 47.78502 | -58.79554 | 34248 ft | 507 kts | 270° |
| 2026-04-27 03:50 | 47.78250 | -58.90025 | 34245 ft | 507 kts | 270° |
| 2026-04-27 03:51 | 47.77988 | -59.00496 | 34251 ft | 507 kts | 270° |
| 2026-04-27 03:51 | 47.77716 | -59.10959 | 34242 ft | 506 kts | 270° |
| 2026-04-27 03:52 | 47.77436 | -59.21405 | 34234 ft | 505 kts | 270° |
| 2026-04-27 03:52 | 47.77147 | -59.31836 | 34250 ft | 505 kts | 269° |
| 2026-04-27 03:53 | 47.76849 | -59.42262 | 34242 ft | 505 kts | 269° |
| 2026-04-27 03:53 | 47.76541 | -59.52687 | 34256 ft | 505 kts | 269° |
| 2026-04-27 03:54 | 47.76224 | -59.63105 | 34251 ft | 504 kts | 269° |
| 2026-04-27 03:54 | 47.75897 | -59.73504 | 34265 ft | 503 kts | 269° |
| 2026-04-27 03:55 | 47.75562 | -59.83901 | 34266 ft | 503 kts | 269° |
| 2026-04-27 03:55 | 47.75217 | -59.94284 | 34269 ft | 503 kts | 268° |
| 2026-04-27 03:56 | 47.74864 | -60.04665 | 34259 ft | 503 kts | 269° |
| 2026-04-27 03:56 | 47.74501 | -60.15041 | 34265 ft | 502 kts | 268° |
| 2026-04-27 03:57 | 47.74129 | -60.25402 | 34269 ft | 502 kts | 268° |
| 2026-04-27 03:57 | 47.73750 | -60.35756 | 34278 ft | 502 kts | 268° |
| 2026-04-27 03:58 | 47.73376 | -60.46035 | 34277 ft | 502 kts | 268° |
| 2026-04-27 03:58 | 47.73095 | -60.56388 | 34280 ft | 502 kts | 269° |
| 2026-04-27 03:59 | 47.72837 | -60.66734 | 34281 ft | 500 kts | 268° |
| 2026-04-27 03:59 | 47.72559 | -60.77053 | 34282 ft | 500 kts | 268° |
| 2026-04-27 04:00 | 47.72262 | -60.87364 | 34288 ft | 500 kts | 268° |
| 2026-04-27 04:00 | 47.71953 | -60.97672 | 34292 ft | 500 kts | 268° |
| 2026-04-27 04:01 | 47.71634 | -61.07980 | 34280 ft | 500 kts | 267° |
| 2026-04-27 04:01 | 47.71307 | -61.18277 | 34287 ft | 498 kts | 267° |
| 2026-04-27 04:02 | 47.70972 | -61.28542 | 34285 ft | 498 kts | 267° |
| 2026-04-27 04:02 | 47.70628 | -61.38803 | 34285 ft | 497 kts | 267° |
| 2026-04-27 04:03 | 47.70275 | -61.49065 | 34288 ft | 497 kts | 267° |
| 2026-04-27 04:03 | 47.69913 | -61.59323 | 34282 ft | 497 kts | 266° |
| 2026-04-27 04:04 | 47.69544 | -61.69505 | 34291 ft | 497 kts | 266° |
| 2026-04-27 04:04 | 47.69165 | -61.79741 | 34290 ft | 497 kts | 266° |
| 2026-04-27 04:05 | 47.68775 | -61.89992 | 34295 ft | 497 kts | 266° |
| 2026-04-27 04:05 | 47.68376 | -62.00244 | 34296 ft | 497 kts | 266° |
| 2026-04-27 04:06 | 47.67969 | -62.10482 | 34296 ft | 497 kts | 266° |
| 2026-04-27 04:06 | 47.67552 | -62.20722 | 34305 ft | 497 kts | 265° |
| 2026-04-27 04:07 | 47.66911 | -62.36084 | 34304 ft | 497 kts | 265° |
| 2026-04-27 04:07 | 47.66471 | -62.46322 | 34307 ft | 497 kts | 265° |
| 2026-04-27 04:08 | 47.66022 | -62.56565 | 34299 ft | 497 kts | 265° |
| 2026-04-27 04:08 | 47.65565 | -62.66789 | 34306 ft | 496 kts | 265° |
| 2026-04-27 04:09 | 47.65103 | -62.76931 | 34310 ft | 496 kts | 265° |
| 2026-04-27 04:09 | 47.64628 | -62.87144 | 34310 ft | 496 kts | 265° |
| 2026-04-27 04:10 | 47.64145 | -62.97344 | 34310 ft | 496 kts | 265° |
| 2026-04-27 04:10 | 47.63653 | -63.07533 | 34309 ft | 496 kts | 264° |
| 2026-04-27 04:11 | 47.63153 | -63.17731 | 34302 ft | 496 kts | 264° |
| 2026-04-27 04:11 | 47.62894 | -63.27966 | 34310 ft | 497 kts | 268° |
| 2026-04-27 04:12 | 47.62948 | -63.38212 | 34305 ft | 497 kts | 269° |
| 2026-04-27 04:12 | 47.63019 | -63.48464 | 34305 ft | 497 kts | 269° |
| 2026-04-27 04:13 | 47.63044 | -63.58717 | 34304 ft | 497 kts | 269° |
| 2026-04-27 04:13 | 47.63037 | -63.68906 | 34304 ft | 497 kts | 268° |
| 2026-04-27 04:14 | 47.63015 | -63.79223 | 34305 ft | 497 kts | 268° |
| 2026-04-27 04:14 | 47.62985 | -63.89476 | 34302 ft | 497 kts | 268° |
| 2026-04-27 04:15 | 47.62948 | -63.99665 | 34305 ft | 497 kts | 268° |
| 2026-04-27 04:15 | 47.62901 | -64.09933 | 34307 ft | 499 kts | 268° |
| 2026-04-27 04:16 | 47.62846 | -64.20225 | 34310 ft | 500 kts | 268° |
| 2026-04-27 04:16 | 47.62781 | -64.30531 | 34307 ft | 500 kts | 268° |
| 2026-04-27 04:17 | 47.62707 | -64.40846 | 34307 ft | 500 kts | 268° |
| 2026-04-27 04:17 | 47.62624 | -64.51170 | 34308 ft | 500 kts | 267° |
| 2026-04-27 04:18 | 47.62532 | -64.61411 | 34314 ft | 500 kts | 267° |
| 2026-04-27 04:18 | 47.62430 | -64.71710 | 34315 ft | 500 kts | 267° |
| 2026-04-27 04:19 | 47.62319 | -64.82010 | 34315 ft | 500 kts | 267° |
| 2026-04-27 04:19 | 47.62199 | -64.92307 | 34316 ft | 500 kts | 267° |
| 2026-04-27 04:20 | 47.62070 | -65.02603 | 34317 ft | 500 kts | 266° |
| 2026-04-27 04:20 | 47.61931 | -65.12904 | 34320 ft | 500 kts | 266° |
| 2026-04-27 04:21 | 47.61783 | -65.23211 | 34318 ft | 500 kts | 266° |
| 2026-04-27 04:21 | 47.61626 | -65.33511 | 34319 ft | 500 kts | 266° |
| 2026-04-27 04:22 | 47.61459 | -65.43815 | 34331 ft | 500 kts | 265° |
| 2026-04-27 04:22 | 47.61284 | -65.54108 | 34320 ft | 499 kts | 265° |
| 2026-04-27 04:23 | 47.61099 | -65.64392 | 34322 ft | 499 kts | 265° |
| 2026-04-27 04:23 | 47.60905 | -65.74685 | 34322 ft | 499 kts | 265° |
| 2026-04-27 04:24 | 47.60703 | -65.84962 | 34323 ft | 499 kts | 265° |
| 2026-04-27 04:24 | 47.60491 | -65.95235 | 34330 ft | 499 kts | 265° |
| 2026-04-27 04:25 | 47.60270 | -66.05504 | 34317 ft | 499 kts | 265° |
| 2026-04-27 04:25 | 47.60041 | -66.15716 | 34312 ft | 499 kts | 265° |
| 2026-04-27 04:26 | 47.59802 | -66.25989 | 34295 ft | 499 kts | 265° |
| 2026-04-27 04:26 | 47.59553 | -66.36257 | 34295 ft | 498 kts | 264° |
| 2026-04-27 04:27 | 47.59296 | -66.46506 | 34285 ft | 498 kts | 264° |
| 2026-04-27 04:27 | 47.59031 | -66.56734 | 34288 ft | 497 kts | 264° |
| 2026-04-27 04:28 | 47.58755 | -66.66968 | 34276 ft | 497 kts | 264° |
| 2026-04-27 04:28 | 47.58471 | -66.77199 | 34273 ft | 497 kts | 264° |
| 2026-04-27 04:29 | 47.58179 | -66.87407 | 34287 ft | 496 kts | 264° |
| 2026-04-27 04:29 | 47.57878 | -66.97616 | 34273 ft | 496 kts | 264° |
| 2026-04-27 04:30 | 47.57567 | -67.07814 | 34270 ft | 496 kts | 264° |
| 2026-04-27 04:30 | 47.57248 | -67.18009 | 34272 ft | 496 kts | 264° |
| 2026-04-27 04:31 | 47.56921 | -67.28149 | 34277 ft | 495 kts | 264° |
| 2026-04-27 04:31 | 47.56584 | -67.38337 | 34270 ft | 495 kts | 264° |
| 2026-04-27 04:32 | 47.56239 | -67.48502 | 34271 ft | 494 kts | 263° |
| 2026-04-27 04:32 | 47.55884 | -67.58660 | 34272 ft | 493 kts | 263° |
| 2026-04-27 04:33 | 47.55522 | -67.68800 | 34269 ft | 493 kts | 263° |
| 2026-04-27 04:33 | 47.55150 | -67.78933 | 34297 ft | 492 kts | 263° |
| 2026-04-27 04:34 | 47.54773 | -67.88994 | 34274 ft | 492 kts | 263° |
| 2026-04-27 04:34 | 47.54385 | -67.99088 | 34270 ft | 491 kts | 263° |
| 2026-04-27 04:35 | 47.53989 | -68.09177 | 34275 ft | 491 kts | 263° |
| 2026-04-27 04:35 | 47.53583 | -68.19266 | 34273 ft | 491 kts | 263° |
| 2026-04-27 04:36 | 47.53169 | -68.29347 | 34266 ft | 491 kts | 263° |
| 2026-04-27 04:36 | 47.52818 | -68.37730 | 34266 ft | 491 kts | 263° |
| 2026-04-27 04:37 | 47.52388 | -68.47808 | 34281 ft | 491 kts | 263° |
| 2026-04-27 04:37 | 47.51949 | -68.57881 | 34278 ft | 491 kts | 263° |
| 2026-04-27 04:38 | 47.51502 | -68.67946 | 34281 ft | 490 kts | 263° |
| 2026-04-27 04:38 | 47.51048 | -68.77977 | 34265 ft | 488 kts | 263° |
| 2026-04-27 04:39 | 47.50586 | -68.87975 | 34253 ft | 487 kts | 263° |
| 2026-04-27 04:39 | 47.50116 | -68.97946 | 34258 ft | 486 kts | 263° |
| 2026-04-27 04:40 | 47.49639 | -69.07893 | 34254 ft | 485 kts | 263° |
| 2026-04-27 04:40 | 47.49153 | -69.17834 | 34265 ft | 484 kts | 263° |
| 2026-04-27 04:41 | 47.48663 | -69.27699 | 34256 ft | 484 kts | 263° |
| 2026-04-27 04:41 | 47.48162 | -69.37613 | 34255 ft | 483 kts | 262° |
| 2026-04-27 04:42 | 47.47652 | -69.47525 | 33912 ft | 485 kts | 262° |
| 2026-04-27 04:42 | 47.47393 | -69.52484 | 33180 ft | 482 kts | 262° |
| 2026-04-27 04:42 | 47.47135 | -69.57413 | 32462 ft | 480 kts | 263° |
| 2026-04-27 04:43 | 47.46875 | -69.62325 | 31674 ft | 480 kts | 263° |
| 2026-04-27 04:43 | 47.46612 | -69.67245 | 30856 ft | 480 kts | 263° |
| 2026-04-27 04:43 | 47.46347 | -69.72166 | 29952 ft | 481 kts | 263° |
| 2026-04-27 04:43 | 47.46079 | -69.77103 | 28947 ft | 482 kts | 263° |
| 2026-04-27 04:44 | 47.45809 | -69.82029 | 28046 ft | 480 kts | 263° |
| 2026-04-27 04:44 | 47.45541 | -69.86906 | 27397 ft | 473 kts | 263° |
| 2026-04-27 04:44 | 47.45274 | -69.91715 | 26721 ft | 467 kts | 264° |
| 2026-04-27 04:44 | 47.45009 | -69.96467 | 26053 ft | 461 kts | 264° |
| 2026-04-27 04:45 | 47.44745 | -70.01156 | 25397 ft | 456 kts | 264° |
| 2026-04-27 04:45 | 47.44482 | -70.05790 | 24756 ft | 450 kts | 264° |
| 2026-04-27 04:45 | 47.44190 | -70.10373 | 24112 ft | 445 kts | 261° |
| 2026-04-27 04:45 | 47.43439 | -70.14769 | 23386 ft | 440 kts | 249° |
| 2026-04-27 04:46 | 47.42125 | -70.18806 | 22799 ft | 432 kts | 239° |
| 2026-04-27 04:46 | 47.40386 | -70.22373 | 22170 ft | 425 kts | 229° |
| 2026-04-27 04:46 | 47.38483 | -70.25668 | 21514 ft | 420 kts | 229° |
| 2026-04-27 04:46 | 47.36590 | -70.28924 | 20870 ft | 416 kts | 229° |
| 2026-04-27 04:47 | 47.34720 | -70.32153 | 20248 ft | 412 kts | 230° |
| 2026-04-27 04:47 | 47.32876 | -70.35358 | 19623 ft | 409 kts | 230° |
| 2026-04-27 04:47 | 47.31049 | -70.38547 | 19008 ft | 405 kts | 230° |
| 2026-04-27 04:47 | 47.29242 | -70.41712 | 18365 ft | 403 kts | 230° |
| 2026-04-27 04:48 | 47.27446 | -70.44860 | 17702 ft | 400 kts | 230° |
| 2026-04-27 04:48 | 47.25665 | -70.47981 | 17052 ft | 396 kts | 230° |
| 2026-04-27 04:48 | 47.23902 | -70.51067 | 16430 ft | 392 kts | 230° |
| 2026-04-27 04:48 | 47.22155 | -70.54122 | 15815 ft | 389 kts | 230° |
| 2026-04-27 04:49 | 47.20416 | -70.57160 | 15038 ft | 390 kts | 230° |
| 2026-04-27 04:49 | 47.18670 | -70.60205 | 14378 ft | 388 kts | 230° |
| 2026-04-27 04:49 | 47.16934 | -70.63230 | 13725 ft | 385 kts | 230° |
| 2026-04-27 04:49 | 47.15215 | -70.66222 | 13057 ft | 381 kts | 230° |
| 2026-04-27 04:50 | 47.13514 | -70.69179 | 12439 ft | 377 kts | 230° |
| 2026-04-27 04:50 | 47.11829 | -70.72105 | 11853 ft | 373 kts | 230° |
| 2026-04-27 04:50 | 47.10165 | -70.74994 | 11283 ft | 368 kts | 230° |
| 2026-04-27 04:50 | 47.08529 | -70.77830 | 10944 ft | 357 kts | 230° |
| 2026-04-27 04:51 | 47.06978 | -70.80513 | 10792 ft | 342 kts | 230° |
| 2026-04-27 04:51 | 47.05492 | -70.83156 | 10647 ft | 329 kts | 236° |
| 2026-04-27 04:51 | 47.04383 | -70.86005 | 10511 ft | 316 kts | 244° |
| 2026-04-27 04:51 | 47.03441 | -70.88849 | 10386 ft | 304 kts | 245° |
| 2026-04-27 04:52 | 47.02543 | -70.91603 | 10253 ft | 295 kts | 245° |
| 2026-04-27 04:52 | 47.01668 | -70.94272 | 10127 ft | 286 kts | 245° |
| 2026-04-27 04:52 | 47.00812 | -70.96853 | 10013 ft | 277 kts | 245° |
| 2026-04-27 04:52 | 46.99970 | -70.99366 | 9757 ft | 274 kts | 245° |
| 2026-04-27 04:53 | 46.99132 | -71.01853 | 9497 ft | 271 kts | 245° |
| 2026-04-27 04:53 | 46.98299 | -71.04314 | 9215 ft | 269 kts | 245° |
| 2026-04-27 04:53 | 46.97467 | -71.06760 | 8935 ft | 267 kts | 245° |
| 2026-04-27 04:53 | 46.96640 | -71.09185 | 8657 ft | 266 kts | 245° |
| 2026-04-27 04:54 | 46.95817 | -71.11597 | 8380 ft | 264 kts | 244° |
| 2026-04-27 04:54 | 46.94996 | -71.13998 | 8111 ft | 263 kts | 244° |
| 2026-04-27 04:54 | 46.94178 | -71.16385 | 7813 ft | 262 kts | 244° |
| 2026-04-27 04:54 | 46.93361 | -71.18766 | 7550 ft | 260 kts | 244° |
| 2026-04-27 04:55 | 46.92550 | -71.21127 | 7300 ft | 259 kts | 244° |
| 2026-04-27 04:55 | 46.91752 | -71.23447 | 7026 ft | 258 kts | 244° |
| 2026-04-27 04:55 | 46.90937 | -71.25814 | 6750 ft | 257 kts | 244° |
| 2026-04-27 04:55 | 46.90146 | -71.28112 | 6480 ft | 256 kts | 244° |
| 2026-04-27 04:56 | 46.89347 | -71.30430 | 6191 ft | 255 kts | 244° |
| 2026-04-27 04:56 | 46.88551 | -71.32741 | 5912 ft | 254 kts | 243° |
| 2026-04-27 04:56 | 46.87757 | -71.35040 | 5639 ft | 253 kts | 244° |
| 2026-04-27 04:56 | 46.86968 | -71.37321 | 5457 ft | 248 kts | 244° |
| 2026-04-27 04:57 | 46.86203 | -71.39534 | 5340 ft | 241 kts | 244° |
| 2026-04-27 04:57 | 46.85457 | -71.41687 | 5230 ft | 233 kts | 244° |
| 2026-04-27 04:57 | 46.84734 | -71.43772 | 5128 ft | 226 kts | 244° |
| 2026-04-27 04:57 | 46.84035 | -71.45785 | 5033 ft | 219 kts | 244° |
| 2026-04-27 04:58 | 46.83318 | -71.47702 | 4917 ft | 212 kts | 236° |
| 2026-04-27 04:58 | 46.82381 | -71.49389 | 4830 ft | 216 kts | 231° |
| 2026-04-27 04:58 | 46.81405 | -71.51106 | 4719 ft | 222 kts | 231° |
| 2026-04-27 04:58 | 46.80414 | -71.52874 | 4611 ft | 227 kts | 231° |
| 2026-04-27 04:59 | 46.79419 | -71.54662 | 4465 ft | 225 kts | 232° |
| 2026-04-27 04:59 | 46.78442 | -71.56423 | 4342 ft | 221 kts | 232° |
| 2026-04-27 04:59 | 46.77495 | -71.58131 | 4219 ft | 218 kts | 232° |
| 2026-04-27 04:59 | 46.76528 | -71.59877 | 4100 ft | 219 kts | 232° |
| 2026-04-27 05:00 | 46.75558 | -71.61558 | 3988 ft | 220 kts | 227° |
| 2026-04-27 05:00 | 46.74471 | -71.63136 | 3876 ft | 221 kts | 225° |
| 2026-04-27 05:00 | 46.73369 | -71.64689 | 3739 ft | 219 kts | 224° |
| 2026-04-27 05:00 | 46.72122 | -71.65934 | 3594 ft | 212 kts | 194° |
| 2026-04-27 05:01 | 46.70764 | -71.65738 | 3489 ft | 197 kts | 149° |
| 2026-04-27 05:01 | 46.69813 | -71.64376 | 3434 ft | 191 kts | 130° |
| 2026-04-27 05:01 | 46.68907 | -71.62935 | 3297 ft | 193 kts | 131° |
| 2026-04-27 05:01 | 46.68152 | -71.61327 | 3188 ft | 193 kts | 113° |
| 2026-04-27 05:02 | 46.67869 | -71.59441 | 3065 ft | 191 kts | 90° |
| 2026-04-27 05:02 | 46.68106 | -71.57553 | 3002 ft | 192 kts | 62° |
| 2026-04-27 05:02 | 46.69783 | -71.54525 | 2752 ft | 193 kts | 52° |
| 2026-04-27 05:03 | 46.70577 | -71.53024 | 2506 ft | 181 kts | 53° |
| 2026-04-27 05:03 | 46.71312 | -71.51615 | 2276 ft | 169 kts | 53° |
| 2026-04-27 05:03 | 46.71994 | -71.50298 | 2067 ft | 156 kts | 54° |
| 2026-04-27 05:03 | 46.72618 | -71.49087 | 1871 ft | 148 kts | 54° |
| 2026-04-27 05:04 | 46.73277 | -71.47830 | 1668 ft | 160 kts | 51° |
| 2026-04-27 05:04 | 46.74033 | -71.46690 | 1447 ft | 151 kts | 45° |
| 2026-04-27 05:04 | 46.74756 | -71.45609 | 1303 ft | 147 kts | 46° |
| 2026-04-27 05:04 | 46.75491 | -71.44552 | 1058 ft | 148 kts | 44° |
| 2026-04-27 05:05 | 46.76202 | -71.43506 | 913 ft | 143 kts | 44° |
| 2026-04-27 05:05 | 46.76926 | -71.42537 | 702 ft | 142 kts | 42° |
| 2026-04-27 05:05 | 46.77616 | -71.41524 | 463 ft | 142 kts | 42° |
| 2026-04-27 05:05 | 46.78326 | -71.40511 | 267 ft | 142 kts | 43° |
| 2026-04-27 05:06 | 46.78946 | -71.39632 | 252 ft | 101 kts | 44° |
| 2026-04-27 05:06 | 46.79289 | -71.39135 | 252 ft | 39 kts | 45° |
| 2026-04-27 05:06 | 46.79390 | -71.38990 | 252 ft | 21 kts | 44° |
| 2026-04-27 05:06 | 46.79480 | -71.38826 | 252 ft | 20 kts | 70° |
| 2026-04-27 05:07 | 46.79479 | -71.38674 | 252 ft | 12 kts | 108° |
| 2026-04-27 05:07 | 46.79430 | -71.38593 | 252 ft | 9 kts | 151° |
| 2026-04-27 05:07 | 46.79387 | -71.38561 | 252 ft | 5 kts | 162° |
| 2026-04-27 05:07 | 46.79372 | -71.38556 | 252 ft | 0 kts | 172° |
| 2026-04-27 05:08 | 46.79365 | -71.38542 | 252 ft | 2 kts | 101° |
| 2026-04-27 05:08 | 46.79399 | -71.38490 | 252 ft | 8 kts | 48° |
| 2026-04-27 05:08 | 46.79402 | -71.38470 | 252 ft | 1 kts | 100° |
| 2026-04-27 05:08 | 46.79395 | -71.38452 | 252 ft | 3 kts | 126° |
| 2026-04-27 05:09 | 46.79382 | -71.38429 | 252 ft | 3 kts | 128° |
| 2026-04-27 05:09 | 46.79374 | -71.38416 | 252 ft | 0 kts | 134° |
| 2026-04-27 05:09 | 46.79370 | -71.38410 | 252 ft | 1 kts | 134° |
| 2026-04-27 05:09 | 46.79366 | -71.38404 | 252 ft | 1 kts | 134° |
| 2026-04-27 05:10 | 46.79364 | -71.38401 | 252 ft | 0 kts | 134° |